createdAt,value
2022-12-24T00:01:33.596Z,83.95
2022-12-24T00:04:01.424Z,83.22
2022-12-24T00:06:29.403Z,83.54
2022-12-24T00:08:59.573Z,83.63
2022-12-24T00:11:27.492Z,83.64
2022-12-24T00:13:55.412Z,83.75
2022-12-24T00:16:24.616Z,83.93
2022-12-24T00:18:54.910Z,84.16
2022-12-24T00:21:22.883Z,83.91
2022-12-24T00:23:50.800Z,84.53
2022-12-24T00:26:18.739Z,84.18
2022-12-24T00:29:26.487Z,83.58
2022-12-24T00:32:54.462Z,83.88
2022-12-24T00:35:32.692Z,82.91
2022-12-24T00:38:00.621Z,81.10
2022-12-24T00:40:28.486Z,80.88
2022-12-24T00:42:56.313Z,80.49
2022-12-24T00:45:24.543Z,81.60
2022-12-24T00:47:53.809Z,83.63
2022-12-24T00:50:21.932Z,82.92
2022-12-24T00:52:49.825Z,83.82
2022-12-24T00:55:17.844Z,82.90
2022-12-24T00:57:45.974Z,82.82
2022-12-24T01:00:16.019Z,82.32
2022-12-24T01:02:44.657Z,82.13
2022-12-24T01:05:13.206Z,82.23
2022-12-24T01:07:44.568Z,82.32
2022-12-24T01:10:14.235Z,81.93
2022-12-24T01:12:44.674Z,81.87
2022-12-24T01:15:14.561Z,82.34
2022-12-24T01:17:42.617Z,82.50
2022-12-24T01:20:17.563Z,82.26
2022-12-24T01:22:46.178Z,84.14
2022-12-24T01:25:14.178Z,84.14
2022-12-24T01:27:45.012Z,85.07
2022-12-24T01:30:15.918Z,86.05
2022-12-24T01:32:44.067Z,86.79
2022-12-24T01:35:12.611Z,88.38
2022-12-24T01:37:43.629Z,89.14
2022-12-24T01:40:34.017Z,92.41
2022-12-24T01:43:19.198Z,92.63
2022-12-24T01:45:49.673Z,94.85
2022-12-24T01:48:24.249Z,93.82
2022-12-24T01:50:58.837Z,93.42
2022-12-24T01:53:28.478Z,93.15
2022-12-24T01:55:56.963Z,93.09
2022-12-24T01:58:27.496Z,92.63
2022-12-24T02:00:56.056Z,92.65
2022-12-24T02:03:26.617Z,93.83
2022-12-24T02:05:58.382Z,93.63
2022-12-24T02:08:39.793Z,94.10
2022-12-24T02:11:15.872Z,94.66
2022-12-24T02:13:47.305Z,93.93
2022-12-24T02:16:30.731Z,94.86
2022-12-24T02:19:11.513Z,95.74
2022-12-24T02:21:49.663Z,97.63
2022-12-24T02:25:04.514Z,96.92
2022-12-24T02:27:43.421Z,97.68
2022-12-24T02:30:19.711Z,97.13
2022-12-24T02:33:01.972Z,96.71
2022-12-24T02:35:38.496Z,96.59
2022-12-24T02:38:14.989Z,96.66
2022-12-24T02:40:47.903Z,94.95
2022-12-24T02:43:21.656Z,94.45
2022-12-24T02:45:59.525Z,94.04
2022-12-24T02:48:31.707Z,94.58
2022-12-24T02:51:03.828Z,94.45
2022-12-24T02:53:35.421Z,94.04
2022-12-24T02:56:25.012Z,93.47
2022-12-24T02:59:13.375Z,94.27
2022-12-24T03:01:52.426Z,94.87
2022-12-24T03:04:39.427Z,94.85
2022-12-24T03:07:16.447Z,95.05
2022-12-24T03:10:00.702Z,95.74
2022-12-24T03:12:33.315Z,96.29
2022-12-24T03:15:02.434Z,96.63
2022-12-24T03:17:35.976Z,96.49
2022-12-24T03:20:05.520Z,95.92
2022-12-24T03:22:35.432Z,95.46
2022-12-24T03:25:04.293Z,96.03
2022-12-24T03:27:34.617Z,95.91
2022-12-24T03:30:04.450Z,95.76
2022-12-24T03:32:34.013Z,96.12
2022-12-24T03:35:01.964Z,96.08
2022-12-24T03:37:29.881Z,97.28
2022-12-24T03:39:59.822Z,95.14
2022-12-24T03:42:27.749Z,93.89
2022-12-24T03:44:55.667Z,94.05
2022-12-24T03:47:25.571Z,94.28
2022-12-24T03:49:54.805Z,94.47
2022-12-24T03:52:22.769Z,93.74
2022-12-24T03:54:50.644Z,93.88
2022-12-24T03:57:18.460Z,94.09
2022-12-24T03:59:46.286Z,93.90
2022-12-24T04:02:14.343Z,94.27
2022-12-24T04:04:42.527Z,93.93
2022-12-24T04:07:11.897Z,94.20
2022-12-24T04:09:40.619Z,93.81
2022-12-24T04:12:09.016Z,93.46
2022-12-24T04:14:36.893Z,93.99
2022-12-24T04:17:07.204Z,93.54
2022-12-24T04:19:37.239Z,93.92
2022-12-24T04:22:05.142Z,94.74
2022-12-24T04:24:36.246Z,94.37
2022-12-24T04:27:06.588Z,95.80
2022-12-24T04:29:34.474Z,95.70
2022-12-24T04:32:02.715Z,95.29
2022-12-24T04:34:30.653Z,96.24
2022-12-24T04:36:58.686Z,97.15
2022-12-24T04:39:26.600Z,97.76
2022-12-24T04:41:55.780Z,97.01
2022-12-24T04:44:23.665Z,96.71
2022-12-24T04:46:51.496Z,96.22
2022-12-24T04:49:19.411Z,95.58
2022-12-24T04:51:47.185Z,96.04
2022-12-24T04:54:14.969Z,97.76
2022-12-24T04:56:42.854Z,97.84
2022-12-24T04:59:12.257Z,98.61
2022-12-24T05:01:40.141Z,97.90
2022-12-24T05:04:08.759Z,97.80
2022-12-24T05:06:36.597Z,98.70
2022-12-24T05:09:04.685Z,98.43
2022-12-24T05:11:32.850Z,97.84
2022-12-24T05:14:00.793Z,98.14
2022-12-24T05:16:30.235Z,97.67
2022-12-24T05:18:58.237Z,97.68
2022-12-24T05:21:26.520Z,97.45
2022-12-24T05:24:12.310Z,97.57
2022-12-24T05:26:43.547Z,96.80
2022-12-24T05:29:13.164Z,96.97
2022-12-24T05:31:43.899Z,95.90
2022-12-24T05:34:12.330Z,96.46
2022-12-24T05:36:40.608Z,96.25
2022-12-24T05:39:15.187Z,95.76
2022-12-24T05:41:43.861Z,95.98
2022-12-24T05:44:11.793Z,96.41
2022-12-24T05:46:43.753Z,96.44
2022-12-24T05:49:11.679Z,96.71
2022-12-24T05:51:40.306Z,96.60
2022-12-24T05:54:08.689Z,96.68
2022-12-24T05:56:36.619Z,95.54
2022-12-24T05:59:04.766Z,96.75
2022-12-24T06:01:32.692Z,97.07
2022-12-24T06:04:03.578Z,98.98
2022-12-24T06:06:31.646Z,99.05
2022-12-24T06:08:59.548Z,99.67
2022-12-24T06:11:29.549Z,100.00
2022-12-24T06:13:58.267Z,100.00
2022-12-24T06:16:27.101Z,100.00
2022-12-24T06:18:55.525Z,98.21
2022-12-24T06:21:24.841Z,97.94
2022-12-24T06:23:53.175Z,96.65
2022-12-24T06:26:23.431Z,97.70
2022-12-24T06:28:52.391Z,99.52
2022-12-24T06:31:23.234Z,99.62
2022-12-24T06:33:51.594Z,100.00
2022-12-24T06:36:21.786Z,100.00
2022-12-24T06:38:52.096Z,100.00
2022-12-24T06:41:20.151Z,100.00
2022-12-24T06:43:50.162Z,100.00
2022-12-24T06:46:19.048Z,100.00
2022-12-24T06:48:47.687Z,99.05
2022-12-24T06:51:19.882Z,98.37
2022-12-24T06:53:48.113Z,98.99
2022-12-24T06:56:18.044Z,98.78
2022-12-24T06:58:45.932Z,98.74
2022-12-24T07:01:16.679Z,98.36
2022-12-24T07:03:45.380Z,99.41
2022-12-24T07:06:18.686Z,99.10
2022-12-24T07:08:46.735Z,98.67
2022-12-24T07:11:14.597Z,100.00
2022-12-24T07:13:43.820Z,100.00
2022-12-24T07:16:11.878Z,99.91
2022-12-24T07:18:44.016Z,99.90
2022-12-24T07:21:12.268Z,98.90
2022-12-24T07:24:06.223Z,98.22
2022-12-24T07:26:34.700Z,97.51
2022-12-24T07:29:03.884Z,97.21
2022-12-24T07:31:31.825Z,96.39
2022-12-24T07:33:59.935Z,96.39
2022-12-24T07:36:28.267Z,96.59
2022-12-24T07:38:58.632Z,96.47
2022-12-24T07:41:26.529Z,95.70
2022-12-24T07:43:54.510Z,95.25
2022-12-24T07:46:26.362Z,96.65
2022-12-24T07:48:54.393Z,96.71
2022-12-24T07:51:22.155Z,96.89
2022-12-24T07:53:50.061Z,95.97
2022-12-24T07:56:18.397Z,96.36
2022-12-24T07:58:46.392Z,96.33
2022-12-24T08:01:22.320Z,95.68
2022-12-24T08:03:55.451Z,95.36
2022-12-24T08:06:23.625Z,95.33
2022-12-24T08:08:51.646Z,96.02
2022-12-24T08:11:19.538Z,96.01
2022-12-24T08:13:47.397Z,94.80
2022-12-24T08:16:15.390Z,94.51
2022-12-24T08:18:43.361Z,93.61
2022-12-24T08:21:12.629Z,92.88
2022-12-24T08:23:40.602Z,93.57
2022-12-24T08:26:09.375Z,93.14
2022-12-24T08:28:37.475Z,93.63
2022-12-24T08:31:06.235Z,92.32
2022-12-24T08:33:36.399Z,93.43
2022-12-24T08:36:04.736Z,91.86
2022-12-24T08:38:33.932Z,93.44
2022-12-24T08:41:01.842Z,91.15
2022-12-24T08:43:32.386Z,92.22
2022-12-24T08:46:04.581Z,92.57
2022-12-24T08:48:32.687Z,91.69
2022-12-24T08:51:00.672Z,91.21
2022-12-24T08:53:28.477Z,91.11
2022-12-24T08:56:04.096Z,92.18
2022-12-24T08:58:33.392Z,91.25
2022-12-24T09:01:02.105Z,91.69
2022-12-24T09:03:30.735Z,92.07
2022-12-24T09:05:58.633Z,91.67
2022-12-24T09:08:26.405Z,89.89
2022-12-24T09:10:54.441Z,90.27
2022-12-24T09:13:23.807Z,90.08
2022-12-24T09:15:55.429Z,90.28
2022-12-24T09:18:23.554Z,89.40
2022-12-24T09:20:57.070Z,89.95
2022-12-24T09:23:25.427Z,89.74
2022-12-24T09:25:53.279Z,88.49
2022-12-24T09:28:22.927Z,88.14
2022-12-24T09:30:58.948Z,86.94
2022-12-24T09:33:27.340Z,87.06
2022-12-24T09:35:55.206Z,87.78
2022-12-24T09:38:25.562Z,85.28
2022-12-24T09:40:55.895Z,85.43
2022-12-24T09:43:32.599Z,83.68
2022-12-24T09:46:10.169Z,82.93
2022-12-24T09:48:43.523Z,81.50
2022-12-24T09:51:13.615Z,81.95
2022-12-24T09:53:47.029Z,80.72
2022-12-24T09:56:19.329Z,80.77
2022-12-24T09:58:51.999Z,80.32
2022-12-24T10:01:22.167Z,79.18
2022-12-24T10:03:50.277Z,78.21
2022-12-24T10:06:27.050Z,78.13
2022-12-24T10:09:12.140Z,79.07
2022-12-24T10:11:48.130Z,78.32
2022-12-24T10:14:28.349Z,78.80
2022-12-24T10:17:11.831Z,78.58
2022-12-24T10:19:51.583Z,78.93
2022-12-24T10:22:27.482Z,77.97
2022-12-24T10:25:04.841Z,77.39
2022-12-24T10:27:39.857Z,77.97
2022-12-24T10:30:17.416Z,76.96
2022-12-24T10:32:48.375Z,77.35
2022-12-24T10:35:24.539Z,76.98
2022-12-24T10:37:53.744Z,78.25
2022-12-24T10:40:33.454Z,79.16
2022-12-24T10:43:01.518Z,78.60
2022-12-24T10:45:38.681Z,79.25
2022-12-24T10:48:12.756Z,79.96
2022-12-24T10:50:44.133Z,79.60
2022-12-24T10:53:18.973Z,79.28
2022-12-24T10:55:49.702Z,79.32
2022-12-24T10:58:20.650Z,80.51
2022-12-24T11:00:53.963Z,79.98
2022-12-24T11:03:31.863Z,82.02
2022-12-24T11:06:06.173Z,83.29
2022-12-24T11:08:34.940Z,83.71
2022-12-24T11:11:08.357Z,83.34
2022-12-24T11:13:39.899Z,82.75
2022-12-24T11:16:18.937Z,82.61
2022-12-24T11:18:51.710Z,82.51
2022-12-24T11:21:25.749Z,80.71
2022-12-24T11:23:56.972Z,80.40
2022-12-24T11:26:27.241Z,82.99
2022-12-24T11:29:13.464Z,78.15
2022-12-24T11:31:43.455Z,81.89
2022-12-24T11:34:28.165Z,80.86
2022-12-24T11:37:14.564Z,81.95
2022-12-24T11:39:48.122Z,82.30
2022-12-24T11:42:32.314Z,82.33
2022-12-24T11:45:03.083Z,82.84
2022-12-24T11:47:37.500Z,83.30
2022-12-24T11:50:24.029Z,82.00
2022-12-24T11:52:56.554Z,85.02
2022-12-24T11:55:36.948Z,84.47
2022-12-24T11:58:17.970Z,83.69
2022-12-24T12:00:48.026Z,84.93
2022-12-24T12:03:30.185Z,83.76
2022-12-24T12:06:00.902Z,83.68
2022-12-24T12:08:30.163Z,85.64
2022-12-24T12:11:00.811Z,85.67
2022-12-24T12:13:34.034Z,84.91
2022-12-24T12:16:12.251Z,84.29
2022-12-24T12:18:46.504Z,84.22
2022-12-24T12:21:18.232Z,84.64
2022-12-24T12:23:50.655Z,84.14
2022-12-24T12:26:24.934Z,83.82
2022-12-24T12:28:59.059Z,84.56
2022-12-24T12:31:31.437Z,84.97
2022-12-24T12:34:05.924Z,84.27
2022-12-24T12:36:40.410Z,86.16
2022-12-24T12:39:10.857Z,86.25
2022-12-24T12:41:55.640Z,85.59
2022-12-24T12:44:41.326Z,84.87
2022-12-24T12:47:32.738Z,84.86
2022-12-24T12:50:11.331Z,84.53
2022-12-24T12:53:03.258Z,83.46
2022-12-24T12:55:42.696Z,83.49
2022-12-24T12:58:18.580Z,83.58
2022-12-24T13:00:50.550Z,84.46
2022-12-24T13:03:45.393Z,83.74
2022-12-24T13:06:27.858Z,83.83
2022-12-24T13:09:22.877Z,84.50
2022-12-24T13:12:05.103Z,83.86
2022-12-24T13:14:46.546Z,81.42
2022-12-24T13:17:34.016Z,81.33
2022-12-24T13:20:25.467Z,80.17
2022-12-24T13:23:00.126Z,77.84
2022-12-24T13:25:36.519Z,75.65
2022-12-24T13:28:33.617Z,78.70
2022-12-24T13:31:31.613Z,78.67
2022-12-24T13:34:01.519Z,79.20
2022-12-24T13:37:07.778Z,80.42
2022-12-24T13:40:14.909Z,81.16
2022-12-24T13:43:07.042Z,80.98
2022-12-24T13:45:46.617Z,83.95
2022-12-24T13:48:28.881Z,84.94
2022-12-24T13:50:59.984Z,87.10
2022-12-24T13:53:32.417Z,91.17
2022-12-24T13:56:07.785Z,92.84
2022-12-24T13:58:37.435Z,92.01
2022-12-24T14:01:09.791Z,91.58
2022-12-24T14:03:43.323Z,92.56
2022-12-24T14:06:13.978Z,91.31
2022-12-24T14:08:44.823Z,92.03
2022-12-24T14:11:17.250Z,93.47
2022-12-24T14:14:09.769Z,94.36
2022-12-24T14:16:45.718Z,94.01
2022-12-24T14:19:16.207Z,93.01
2022-12-24T14:21:48.957Z,93.15
2022-12-24T14:24:19.220Z,93.77
2022-12-24T14:26:50.982Z,92.24
2022-12-24T14:29:26.271Z,91.50
2022-12-24T14:31:55.212Z,91.46
2022-12-24T14:34:23.740Z,93.08
2022-12-24T14:36:54.656Z,93.33
2022-12-24T14:39:27.346Z,93.02
2022-12-24T14:42:10.262Z,92.88
2022-12-24T14:44:47.249Z,93.28
2022-12-24T14:47:28.319Z,92.20
2022-12-24T14:50:20.035Z,90.64
2022-12-24T14:53:09.323Z,91.39
2022-12-24T14:55:45.287Z,93.08
2022-12-24T14:58:32.244Z,92.90
2022-12-24T15:01:04.372Z,95.39
2022-12-24T15:03:33.703Z,96.38
2022-12-24T15:06:05.154Z,96.47
2022-12-24T15:08:37.725Z,93.66
2022-12-24T15:11:08.197Z,93.33
2022-12-24T15:13:40.077Z,91.78
2022-12-24T15:16:11.061Z,91.63
2022-12-24T15:18:43.103Z,92.40
2022-12-24T15:21:19.247Z,95.37
2022-12-24T15:23:49.692Z,97.27
2022-12-24T15:26:23.750Z,98.10
2022-12-24T15:29:01.911Z,99.21
2022-12-24T15:31:31.344Z,98.51
2022-12-24T15:34:00.360Z,97.03
2022-12-24T15:36:32.393Z,95.08
2022-12-24T15:39:02.860Z,94.04
2022-12-24T15:41:38.169Z,93.58
2022-12-24T15:44:07.814Z,93.06
2022-12-24T15:46:35.931Z,92.65
2022-12-24T15:49:04.512Z,93.73
2022-12-24T15:51:40.227Z,94.88
2022-12-24T15:54:14.825Z,94.44
2022-12-24T15:56:45.441Z,93.91
2022-12-24T15:59:27.066Z,97.97
2022-12-24T16:01:55.009Z,98.84
2022-12-24T16:04:25.421Z,98.04
2022-12-24T16:06:55.640Z,97.28
2022-12-24T16:09:43.989Z,96.86
2022-12-24T16:12:18.463Z,94.89
2022-12-24T16:14:54.558Z,93.64
2022-12-24T16:17:25.263Z,93.11
2022-12-24T16:19:56.855Z,92.92
2022-12-24T16:22:35.391Z,93.71
2022-12-24T16:25:22.974Z,95.18
2022-12-24T16:27:51.048Z,95.29
2022-12-24T16:30:20.914Z,94.24
2022-12-24T16:32:50.982Z,94.08
2022-12-24T16:35:28.200Z,93.62
2022-12-24T16:37:56.662Z,92.24
2022-12-24T16:40:27.613Z,92.50
2022-12-24T16:43:14.385Z,92.48
2022-12-24T16:45:45.420Z,92.42
2022-12-24T16:48:20.652Z,91.81
2022-12-24T16:50:49.430Z,92.49
2022-12-24T16:53:18.141Z,92.29
2022-12-24T16:55:47.527Z,92.47
2022-12-24T16:58:17.756Z,92.86
2022-12-24T17:00:47.573Z,92.63
2022-12-24T17:03:15.772Z,96.82
2022-12-24T17:05:46.421Z,97.20
2022-12-24T17:08:15.049Z,96.04
2022-12-24T17:10:51.741Z,95.69
2022-12-24T17:13:22.018Z,94.37
2022-12-24T17:15:51.426Z,94.50
2022-12-24T17:18:19.659Z,94.51
2022-12-24T17:20:57.850Z,94.03
2022-12-24T17:23:25.896Z,94.06
2022-12-24T17:25:53.870Z,94.17
2022-12-24T17:28:23.016Z,94.04
2022-12-24T17:30:52.445Z,93.42
2022-12-24T17:33:20.262Z,93.24
2022-12-24T17:35:49.239Z,93.55
2022-12-24T17:38:17.110Z,93.66
2022-12-24T17:40:45.284Z,93.53
2022-12-24T17:43:13.220Z,93.33
2022-12-24T17:45:42.448Z,94.04
2022-12-24T17:48:11.707Z,94.80
2022-12-24T17:50:40.630Z,94.30
2022-12-24T17:53:09.013Z,94.25
2022-12-24T17:55:41.496Z,93.44
2022-12-24T17:58:09.631Z,93.71
2022-12-24T18:00:38.428Z,93.33
2022-12-24T18:03:06.379Z,94.06
2022-12-24T18:05:36.637Z,94.72
2022-12-24T18:08:05.062Z,94.66
2022-12-24T18:10:33.301Z,94.50
2022-12-24T18:13:01.281Z,94.13
2022-12-24T18:15:34.867Z,95.49
2022-12-24T18:18:03.532Z,95.55
2022-12-24T18:20:32.110Z,95.89
2022-12-24T18:23:01.397Z,96.32
2022-12-24T18:25:29.638Z,95.45
2022-12-24T18:27:57.579Z,94.58
2022-12-24T18:30:27.855Z,94.29
2022-12-24T18:32:56.195Z,93.88
2022-12-24T18:35:24.891Z,93.81
2022-12-24T18:37:53.452Z,93.98
2022-12-24T18:40:22.966Z,93.95
2022-12-24T18:42:50.871Z,93.60
2022-12-24T18:45:18.798Z,93.12
2022-12-24T18:47:46.634Z,92.68
2022-12-24T18:50:14.533Z,92.70
2022-12-24T18:52:42.361Z,91.63
2022-12-24T18:55:11.190Z,91.62
2022-12-24T18:57:40.398Z,91.75
2022-12-24T19:00:09.775Z,91.83
2022-12-24T19:02:37.772Z,92.92
2022-12-24T19:05:06.333Z,92.39
2022-12-24T19:07:34.325Z,92.25
2022-12-24T19:10:02.390Z,93.14
2022-12-24T19:12:30.274Z,92.80
2022-12-24T19:14:59.616Z,92.88
2022-12-24T19:17:27.537Z,93.18
2022-12-24T19:19:55.459Z,93.15
2022-12-24T19:22:23.308Z,93.25
2022-12-24T19:24:51.946Z,92.41
2022-12-24T19:27:19.739Z,91.84
2022-12-24T19:29:47.668Z,91.33
2022-12-24T19:32:17.009Z,91.34
2022-12-24T19:34:44.857Z,92.06
2022-12-24T19:37:12.785Z,92.08
2022-12-24T19:39:40.703Z,91.60
2022-12-24T19:42:08.611Z,91.73
2022-12-24T19:44:36.474Z,91.31
2022-12-24T19:47:04.342Z,90.87
2022-12-24T19:49:33.517Z,91.05
2022-12-24T19:52:01.616Z,90.50
2022-12-24T19:54:31.710Z,90.74
2022-12-24T19:56:59.621Z,90.53
2022-12-24T19:59:27.524Z,90.07
2022-12-24T20:01:56.194Z,89.53
2022-12-24T20:04:24.221Z,89.64
2022-12-24T20:06:59.658Z,89.30
2022-12-24T20:09:28.954Z,89.43
2022-12-24T20:11:59.213Z,89.63
2022-12-24T20:14:29.433Z,89.55
2022-12-24T20:16:57.495Z,89.46
2022-12-24T20:19:25.395Z,89.69
2022-12-24T20:21:56.664Z,89.67
2022-12-24T20:24:27.720Z,89.68
2022-12-24T20:26:55.595Z,89.76
2022-12-24T20:29:25.949Z,89.76
2022-12-24T20:31:53.855Z,89.96
2022-12-24T20:34:21.790Z,90.29
2022-12-24T20:36:49.724Z,90.17
2022-12-24T20:39:18.917Z,90.34
2022-12-24T20:41:46.798Z,89.83
2022-12-24T20:44:14.705Z,89.73
2022-12-24T20:46:42.700Z,89.44
2022-12-24T20:49:12.323Z,89.88
2022-12-24T20:51:40.622Z,89.00
2022-12-24T20:54:08.686Z,88.06
2022-12-24T20:56:37.934Z,87.60
2022-12-24T20:59:05.762Z,87.94
2022-12-24T21:01:34.395Z,87.92
2022-12-24T21:04:04.840Z,88.01
2022-12-24T21:06:33.637Z,87.80
2022-12-24T21:09:01.966Z,88.02
2022-12-24T21:11:47.175Z,87.70
2022-12-24T21:14:18.178Z,87.47
2022-12-24T21:16:46.787Z,87.39
2022-12-24T21:19:18.047Z,87.05
2022-12-24T21:21:46.957Z,87.33
2022-12-24T21:24:15.276Z,87.13
2022-12-24T21:26:43.293Z,87.81
2022-12-24T21:29:11.547Z,87.27
2022-12-24T21:31:40.799Z,87.16
2022-12-24T21:34:09.347Z,86.53
2022-12-24T21:36:37.208Z,86.63
2022-12-24T21:39:06.004Z,86.57
2022-12-24T21:41:33.803Z,87.62
2022-12-24T21:44:02.675Z,87.48
2022-12-24T21:46:30.737Z,88.22
2022-12-24T21:49:17.397Z,87.62
2022-12-24T21:51:48.703Z,87.66
2022-12-24T21:54:28.589Z,87.87
2022-12-24T21:57:16.581Z,87.50
2022-12-24T21:59:44.700Z,88.13
2022-12-24T22:02:13.992Z,89.04
2022-12-24T22:04:44.180Z,89.69
2022-12-24T22:07:38.357Z,90.82
2022-12-24T22:10:25.112Z,91.05
2022-12-24T22:12:53.504Z,92.43
2022-12-24T22:15:22.414Z,93.40
2022-12-24T22:17:50.291Z,95.21
2022-12-24T22:20:19.862Z,95.82
2022-12-24T22:22:48.766Z,95.05
2022-12-24T22:25:16.976Z,95.15
2022-12-24T22:27:44.933Z,94.84
2022-12-24T22:30:13.668Z,95.14
2022-12-24T22:32:41.607Z,95.68
2022-12-24T22:35:10.010Z,96.30
2022-12-24T22:37:39.333Z,97.97
2022-12-24T22:40:08.415Z,98.49
2022-12-24T22:42:40.968Z,99.87
2022-12-24T22:45:12.601Z,99.53
2022-12-24T22:47:43.584Z,98.89
2022-12-24T22:50:12.562Z,98.12
2022-12-24T22:52:41.927Z,98.55
2022-12-24T22:55:10.828Z,97.48
2022-12-24T22:57:41.270Z,96.65
2022-12-24T23:00:14.122Z,96.35
2022-12-24T23:02:42.238Z,95.58
2022-12-24T23:05:14.324Z,95.14
2022-12-24T23:07:43.673Z,95.32
2022-12-24T23:10:11.773Z,94.92
2022-12-24T23:12:56.231Z,95.29
2022-12-24T23:15:24.295Z,95.21
2022-12-24T23:17:52.137Z,96.08
2022-12-24T23:20:20.054Z,96.31
2022-12-24T23:22:51.418Z,95.61
2022-12-24T23:25:19.386Z,95.62
2022-12-24T23:27:47.358Z,96.37
2022-12-24T23:30:17.778Z,96.02
2022-12-24T23:32:45.724Z,95.88
2022-12-24T23:35:13.618Z,95.49
2022-12-24T23:37:41.489Z,95.54
2022-12-24T23:40:11.982Z,95.39
2022-12-24T23:42:39.847Z,95.52
2022-12-24T23:45:10.973Z,95.39
2022-12-24T23:47:38.899Z,94.96
2022-12-24T23:50:08.313Z,94.93
2022-12-24T23:52:36.320Z,94.87
2022-12-24T23:55:04.581Z,94.98
2022-12-24T23:57:33.825Z,95.30
